This is the latest recevied weather packets stored in our database for station/object JH7MHZ-13. If no packets are shown the sender has not sent any weather packets the latest 10 day(s).
| Time | Temp. | Humidity | Pressure | Rain* | Wind** | Luminosity | Snow |
|---|---|---|---|---|---|---|---|
| 1788325175 | 26.11° C | 93% | 994.8 hPa | 0 mm | - | - | - |
| 1788321575 | 23.89° C | 97% | 995.3 hPa | 0 mm | - | - | - |
| 1788317974 | 23.89° C | 94% | 995.1 hPa | 23.37 mm | - | - | - |
| 1788314374 | 23.33° C | 95% | 995.4 hPa | 0 mm | - | - | - |
| 1788310773 | 23.89° C | 95% | 995.5 hPa | 2.03 mm | - | - | - |
| 1788307172 | 22.78° C | 95% | 995.5 hPa | 0 mm | - | - | - |
| 1788303571 | 21.67° C | 97% | 995.6 hPa | 0 mm | - | - | - |
| 1788299971 | 21.11° C | 97% | 995.5 hPa | 0 mm | - | - | - |
| 1788296370 | 20° C | 98% | 995.1 hPa | 0 mm | - | - | - |
| 1788292770 | 19.44° C | 97% | 994.6 hPa | 0 mm | - | - | - |
| 1788289169 | 20° C | 95% | 994.8 hPa | 0 mm | - | - | - |
| 1788285569 | 19.44° C | 95% | 995.5 hPa | 0 mm | - | - | - |
| 1788281968 | 18.89° C | 95% | 995.7 hPa | 0 mm | - | - | - |
| 1788278367 | 19.44° C | 94% | 995.7 hPa | 0 mm | - | - | - |
| 1788274767 | 19.44° C | 94% | 996.6 hPa | 0 mm | - | - | - |
| 1788271166 | 19.44° C | 93% | 997.1 hPa | 0 mm | - | - | - |
| 1788267566 | 20° C | 92% | 997.9 hPa | 0 mm | - | - | - |
| 1788263965 | 20.56° C | 87% | 998.6 hPa | 0 mm | - | - | - |
| 1788260365 | 21.67° C | 83% | 999.1 hPa | 0 mm | - | - | - |
| 1788256764 | 22.22° C | 82% | 998.7 hPa | 0 mm | - | - | - |
| 1788253163 | 22.78° C | 81% | 998.5 hPa | 0 mm | - | - | - |
| 1788249563 | 23.33° C | 79% | 998.7 hPa | 0 mm | - | - | - |
| 1788245962 | 24.44° C | 77% | 998.5 hPa | 0 mm | - | - | - |
| 1788242362 | 25.56° C | 74% | 998.4 hPa | 0 mm | - | - | - |
| 1788238761 | 26.11° C | 72% | 998.6 hPa | 0 mm | - | - | - |
* Rain latest hour (hover to see other rain measurements)
** Current wind speed in m/s (hover to see current wind gust speed)